Time;durP1;ratioP1;P1;durP2;ratioP2;P2;SDS_P1;SDS_P2;PMS_P1;PMS_P2;Temp;Humidity;BMP_temperature;BMP_pressure;BME280_temperature;BME280_humidity;BME280_pressure;Samples;Min_cycle;Max_cycle;Signal;HPM_P1;HPM_P2
2021/07/03 02:46:33;;;;;;;24.33;22.30;;;14.40;99.90;;;;;;5692393;23;20568;-75
2021/07/03 02:48:59;;;;;;;25.87;23.80;;;14.40;99.90;;;;;;4931511;29;20821;-74
2021/07/03 02:51:26;;;;;;;25.53;23.63;;;14.40;99.90;;;;;;4933807;29;20454;-75
2021/07/03 02:53:53;;;;;;;26.73;24.43;;;14.30;99.90;;;;;;4932686;29;20473;-75
2021/07/03 02:56:20;;;;;;;24.57;22.57;;;14.40;99.90;;;;;;4933712;29;20457;-74
2021/07/03 02:58:47;;;;;;;24.80;22.60;;;14.30;99.90;;;;;;4933686;29;20453;-74
2021/07/03 03:01:13;;;;;;;24.53;22.53;;;14.20;99.90;;;;;;4933741;29;20460;-75
2021/07/03 03:03:43;;;;;;;24.27;22.20;;;14.10;99.90;;;;;;4933532;29;20496;-74
2021/07/03 03:06:11;;;;;;;24.93;22.83;;;14.10;99.90;;;;;;4933585;29;20817;-75
2021/07/03 03:08:37;;;;;;;22.67;20.97;;;14.10;99.90;;;;;;4933376;29;20864;-74
2021/07/03 03:11:04;;;;;;;23.93;22.00;;;14.00;99.90;;;;;;4933299;29;20826;-75
2021/07/03 03:13:30;;;;;;;25.87;22.90;;;14.00;99.90;;;;;;4933715;29;20457;-75
2021/07/03 03:15:57;;;;;;;23.80;22.00;;;14.00;99.90;;;;;;4933583;29;20460;-75
2021/07/03 03:18:24;;;;;;;26.80;24.90;;;13.90;99.90;;;;;;4932274;29;20464;-75
2021/07/03 03:20:52;;;;;;;26.10;23.80;;;13.90;99.90;;;;;;4933142;29;21185;-76
2021/07/03 03:23:18;;;;;;;24.87;22.97;;;14.00;99.90;;;;;;4932898;29;20488;-74
2021/07/03 03:25:45;;;;;;;24.33;22.37;;;13.90;99.90;;;;;;4933358;29;20987;-75
2021/07/03 03:28:12;;;;;;;24.90;22.67;;;13.90;99.90;;;;;;4933457;29;20454;-76
2021/07/03 03:30:39;;;;;;;24.80;22.80;;;13.90;99.90;;;;;;4932999;29;20460;-75
2021/07/03 03:33:05;;;;;;;25.77;23.37;;;13.80;99.90;;;;;;4933265;29;20918;-75
2021/07/03 03:35:32;;;;;;;23.80;21.83;;;13.90;99.90;;;;;;4933177;29;20475;-75
2021/07/03 03:38:00;;;;;;;27.00;24.50;;;13.90;99.90;;;;;;4933409;29;20461;-75
2021/07/03 03:40:27;;;;;;;27.13;25.03;;;13.90;99.90;;;;;;4933142;29;20505;-75
2021/07/03 03:42:54;;;;;;;25.20;23.20;;;13.90;99.90;;;;;;4933042;29;20476;-75
2021/07/03 03:45:21;;;;;;;25.93;23.70;;;14.00;99.90;;;;;;4932675;29;20602;-74
2021/07/03 03:47:47;;;;;;;24.33;22.43;;;14.00;99.90;;;;;;4940956;29;20496;-74
2021/07/03 03:50:14;;;;;;;24.40;22.40;;;13.90;99.90;;;;;;4952311;29;20457;-74
2021/07/03 03:52:41;;;;;;;26.03;23.83;;;13.90;99.90;;;;;;4952034;29;20455;-75
2021/07/03 03:55:10;;;;;;;25.13;23.03;;;13.90;99.90;;;;;;4951183;29;20476;-74
2021/07/03 03:57:37;;;;;;;27.17;24.63;;;13.90;99.90;;;;;;4951956;29;20456;-74
2021/07/03 04:00:06;;;;;;;26.50;24.30;;;13.90;99.90;;;;;;4951888;29;20457;-74
2021/07/03 04:02:32;;;;;;;24.63;22.50;;;13.90;99.90;;;;;;4951716;29;20471;-73
2021/07/03 04:04:59;;;;;;;24.17;22.17;;;13.90;99.90;;;;;;4952023;29;20527;-74
2021/07/03 04:07:26;;;;;;;25.53;23.37;;;13.90;99.90;;;;;;4951948;29;20449;-75
2021/07/03 04:09:52;;;;;;;26.13;23.93;;;13.90;99.90;;;;;;4951795;29;20461;-75
2021/07/03 04:12:20;;;;;;;23.83;21.73;;;14.00;99.90;;;;;;4951765;29;20460;-76
2021/07/03 04:14:48;;;;;;;26.03;23.90;;;14.00;99.90;;;;;;4952000;29;20492;-75
2021/07/03 04:17:15;;;;;;;24.73;22.87;;;14.00;99.90;;;;;;4951655;29;20467;-75
2021/07/03 04:19:42;;;;;;;23.00;21.20;;;14.10;99.90;;;;;;4952074;29;20449;-75
2021/07/03 04:22:09;;;;;;;25.40;23.40;;;14.10;99.90;;;;;;4951919;29;20453;-75
2021/07/03 04:24:36;;;;;;;24.43;22.53;;;14.20;99.90;;;;;;4951298;29;21045;-76
2021/07/03 04:27:03;;;;;;;25.20;23.00;;;14.30;99.90;;;;;;4952129;29;20487;-79
2021/07/03 04:29:31;;;;;;;22.33;20.63;;;14.60;99.90;;;;;;4953344;28;20456;-79
2021/07/03 04:31:58;;;;;;;23.00;21.40;;;15.00;99.90;;;;;;4955615;29;20449;-77
2021/07/03 04:34:25;;;;;;;23.07;21.27;;;15.40;99.90;;;;;;4955490;29;21000;-77
2021/07/03 04:36:52;;;;;;;22.23;20.53;;;15.60;99.90;;;;;;4955441;29;20472;-76
2021/07/03 04:39:18;;;;;;;21.53;19.73;;;15.80;99.90;;;;;;4955258;29;20456;-79
2021/07/03 04:41:45;;;;;;;21.67;20.03;;;16.00;99.90;;;;;;4955399;29;20448;-78
2021/07/03 04:44:13;;;;;;;21.93;19.87;;;16.10;99.90;;;;;;4955071;29;20457;-77
2021/07/03 04:46:41;;;;;;;20.50;19.00;;;16.10;99.90;;;;;;4955448;28;20476;-77
2021/07/03 04:49:08;;;;;;;21.07;19.63;;;16.20;99.90;;;;;;4954911;29;20488;-77
2021/07/03 04:51:35;;;;;;;21.50;19.70;;;16.30;99.90;;;;;;4955059;29;20812;-79
2021/07/03 04:54:02;;;;;;;21.60;19.60;;;16.30;99.90;;;;;;4955055;29;21021;-78
2021/07/03 04:56:28;;;;;;;22.20;20.40;;;16.30;99.90;;;;;;4954476;29;20475;-78
2021/07/03 04:58:56;;;;;;;19.03;17.60;;;16.40;99.90;;;;;;4954882;29;20514;-77
2021/07/03 05:01:23;;;;;;;21.30;19.27;;;16.60;99.90;;;;;;4954740;29;20993;-77
2021/07/03 05:03:51;;;;;;;20.33;18.93;;;16.80;99.90;;;;;;4954894;29;20461;-78
2021/07/03 05:06:19;;;;;;;19.67;18.20;;;16.90;99.90;;;;;;4954821;29;20465;-77
2021/07/03 05:08:45;;;;;;;19.90;18.40;;;17.00;99.90;;;;;;4954754;29;20461;-75
2021/07/03 05:11:12;;;;;;;19.13;17.93;;;17.30;99.90;;;;;;4954895;29;20479;-76
2021/07/03 05:13:39;;;;;;;20.37;18.80;;;17.60;99.90;;;;;;4954578;29;20507;-75
2021/07/03 05:16:06;;;;;;;18.90;17.40;;;17.80;99.90;;;;;;4954348;29;20452;-75
2021/07/03 05:18:32;;;;;;;19.43;17.97;;;18.10;99.90;;;;;;4954636;29;20460;-75
2021/07/03 05:21:00;;;;;;;21.70;19.90;;;18.30;99.90;;;;;;4954906;29;20452;-75
2021/07/03 05:23:27;;;;;;;18.57;17.27;;;18.20;99.90;;;;;;4954595;29;20500;-76
2021/07/03 05:25:55;;;;;;;20.80;19.37;;;18.30;99.90;;;;;;4954128;29;20488;-76
2021/07/03 05:28:22;;;;;;;19.60;17.90;;;18.70;99.90;;;;;;4954321;29;20939;-74
2021/07/03 05:30:49;;;;;;;19.73;18.33;;;18.60;99.90;;;;;;4954346;29;20888;-78
2021/07/03 05:33:16;;;;;;;19.73;18.30;;;18.50;99.90;;;;;;4954404;29;20831;-76
2021/07/03 05:35:43;;;;;;;20.80;19.00;;;18.10;99.90;;;;;;4954703;29;20803;-75
2021/07/03 05:38:11;;;;;;;19.47;18.20;;;17.90;99.90;;;;;;4954168;29;20464;-76
2021/07/03 05:40:38;;;;;;;20.47;19.23;;;17.80;99.90;;;;;;4953151;28;20488;-76
2021/07/03 05:43:05;;;;;;;20.20;18.80;;;18.00;99.90;;;;;;4954065;29;20457;-75
2021/07/03 05:45:32;;;;;;;19.90;18.40;;;18.10;99.90;;;;;;4954359;28;20468;-75
2021/07/03 05:47:59;;;;;;;18.83;17.53;;;18.30;99.90;;;;;;4954288;29;20492;-74
2021/07/03 05:50:27;;;;;;;19.10;17.80;;;18.60;99.90;;;;;;4953959;29;20456;-75
2021/07/03 05:52:54;;;;;;;21.03;19.53;;;18.70;99.90;;;;;;4953315;29;20515;-75
2021/07/03 05:55:22;;;;;;;18.30;17.10;;;18.90;99.90;;;;;;4953255;29;21021;-75
2021/07/03 05:57:49;;;;;;;19.20;17.90;;;19.20;99.90;;;;;;4953197;29;20456;-74
2021/07/03 06:00:16;;;;;;;19.23;17.73;;;19.50;99.90;;;;;;4953482;29;20875;-75
2021/07/03 06:02:43;;;;;;;19.27;17.93;;;20.00;99.90;;;;;;4953444;29;20459;-75
2021/07/03 06:05:10;;;;;;;18.40;17.20;;;20.80;99.90;;;;;;4953302;29;20476;-75
2021/07/03 06:07:37;;;;;;;18.13;17.03;;;21.10;99.90;;;;;;4953285;29;20456;-75
2021/07/03 06:10:05;;;;;;;19.87;18.67;;;21.70;99.90;;;;;;4953190;29;20459;-75
2021/07/03 06:12:33;;;;;;;19.10;17.80;;;22.00;99.90;;;;;;4953334;29;20457;-74
2021/07/03 06:15:00;;;;;;;19.37;18.03;;;22.10;99.90;;;;;;4953454;29;20511;-75
2021/07/03 06:17:26;;;;;;;19.57;18.07;;;21.80;99.90;;;;;;4952839;29;20990;-75
2021/07/03 06:19:53;;;;;;;18.63;17.43;;;21.50;99.90;;;;;;4952829;29;20456;-76
2021/07/03 06:22:20;;;;;;;19.40;18.20;;;21.60;99.90;;;;;;4952826;29;20471;-76
2021/07/03 06:24:48;;;;;;;18.53;17.13;;;21.70;99.90;;;;;;4953068;29;20502;-76
2021/07/03 06:27:15;;;;;;;18.07;16.97;;;22.10;99.90;;;;;;4953000;29;20459;-76
2021/07/03 06:29:43;;;;;;;19.00;17.53;;;22.70;99.90;;;;;;4952918;29;20460;-76
2021/07/03 06:32:10;;;;;;;17.77;16.67;;;22.80;99.90;;;;;;4952559;29;20480;-75
2021/07/03 06:34:37;;;;;;;18.97;17.80;;;22.80;99.90;;;;;;4952655;29;20492;-75
2021/07/03 06:37:04;;;;;;;18.83;17.60;;;22.90;99.90;;;;;;4952605;29;20466;-75
2021/07/03 06:39:31;;;;;;;18.43;17.13;;;23.10;99.90;;;;;;4952820;29;20460;-75
2021/07/03 06:41:58;;;;;;;18.40;17.40;;;23.60;99.80;;;;;;4952596;29;20455;-76
2021/07/03 06:44:25;;;;;;;19.03;17.60;;;24.00;99.00;;;;;;4952442;29;20460;-76
2021/07/03 06:46:53;;;;;;;18.63;17.40;;;24.30;97.80;;;;;;4952114;28;20468;-75
2021/07/03 06:49:19;;;;;;;19.27;17.90;;;24.30;97.80;;;;;;4952429;29;20456;-75
2021/07/03 06:51:46;;;;;;;17.77;16.83;;;24.50;97.50;;;;;;4952433;28;20461;-75
2021/07/03 06:54:13;;;;;;;17.80;16.70;;;24.60;97.30;;;;;;4952536;29;20841;-76
2021/07/03 06:56:40;;;;;;;18.30;17.20;;;24.80;96.60;;;;;;4952152;29;20804;-76
2021/07/03 06:59:06;;;;;;;18.53;17.23;;;24.80;96.00;;;;;;4952187;29;20853;-75
2021/07/03 07:01:33;;;;;;;17.73;16.67;;;24.80;95.50;;;;;;4952123;29;20460;-77
2021/07/03 07:04:01;;;;;;;16.90;16.00;;;24.40;96.10;;;;;;4952400;29;20475;-78
2021/07/03 07:06:28;;;;;;;18.07;17.00;;;24.70;95.90;;;;;;4952290;29;20453;-78
2021/07/03 07:08:54;;;;;;;18.80;17.60;;;24.70;95.80;;;;;;4951984;29;20452;-78
2021/07/03 07:11:22;;;;;;;18.47;17.27;;;24.80;95.50;;;;;;4952197;29;20873;-78
2021/07/03 07:13:48;;;;;;;18.13;16.90;;;25.20;94.10;;;;;;4951929;29;20460;-78
2021/07/03 07:16:15;;;;;;;18.20;17.03;;;24.70;93.30;;;;;;4952246;29;20809;-78
2021/07/03 07:18:42;;;;;;;19.83;18.27;;;24.30;94.60;;;;;;4952124;29;20467;-78
2021/07/03 07:21:10;;;;;;;18.83;17.60;;;24.10;95.80;;;;;;4951876;29;20958;-78
2021/07/03 07:23:36;;;;;;;18.53;17.40;;;24.70;95.20;;;;;;4951973;29;20678;-77
2021/07/03 07:26:03;;;;;;;18.90;17.77;;;24.90;94.40;;;;;;4951818;29;20460;-78
2021/07/03 07:28:30;;;;;;;19.13;17.77;;;25.10;93.90;;;;;;4952037;29;20511;-78
2021/07/03 07:30:56;;;;;;;18.57;17.47;;;24.90;94.80;;;;;;4951739;29;20453;-78
2021/07/03 07:33:23;;;;;;;17.87;16.83;;;25.10;94.60;;;;;;4951801;29;20453;-78
2021/07/03 07:35:50;;;;;;;18.53;17.47;;;25.40;94.60;;;;;;4951746;29;20492;-78
2021/07/03 07:38:18;;;;;;;19.80;18.70;;;25.60;93.50;;;;;;4951763;29;20460;-78
2021/07/03 07:40:44;;;;;;;18.90;17.80;;;25.70;93.30;;;;;;4952108;29;20476;-78
2021/07/03 07:43:11;;;;;;;19.07;17.77;;;25.90;93.20;;;;;;4951651;29;20456;-78
2021/07/03 07:45:38;;;;;;;17.70;16.50;;;26.00;92.90;;;;;;4951376;28;20473;-79
2021/07/03 07:48:05;;;;;;;18.83;17.63;;;26.20;93.00;;;;;;4951212;29;20488;-79
2021/07/03 07:50:32;;;;;;;18.37;17.10;;;26.00;93.10;;;;;;4951565;29;20464;-78
2021/07/03 07:52:58;;;;;;;17.80;16.90;;;26.20;93.00;;;;;;4951718;29;20531;-78
2021/07/03 07:55:27;;;;;;;19.67;18.47;;;26.30;92.50;;;;;;4951334;29;20495;-78
2021/07/03 07:57:53;;;;;;;19.23;18.23;;;26.20;92.50;;;;;;4951255;29;20456;-78
2021/07/03 08:00:22;;;;;;;16.93;16.00;;;26.10;92.40;;;;;;4951397;29;20456;-77
2021/07/03 08:02:49;;;;;;;18.93;17.90;;;26.20;92.60;;;;;;4951409;29;20466;-78
2021/07/03 08:05:17;;;;;;;17.70;16.80;;;26.30;92.70;;;;;;4954043;28;20484;-78
2021/07/03 08:07:44;;;;;;;18.63;17.53;;;26.50;91.80;;;;;;4955633;29;20519;-79
2021/07/03 08:10:12;;;;;;;19.00;17.90;;;27.00;91.10;;;;;;4955573;29;20471;-78
2021/07/03 08:12:41;;;;;;;18.80;17.30;;;27.00;91.10;;;;;;4955206;29;20461;-79
2021/07/03 08:15:09;;;;;;;17.70;16.80;;;27.10;90.90;;;;;;4955016;29;20524;-78
2021/07/03 08:17:42;;;;;;;19.00;18.00;;;27.30;90.80;;;;;;4955114;29;20486;-79
2021/07/03 08:20:10;;;;;;;18.60;17.60;;;28.00;89.30;;;;;;4955054;29;20828;-79
2021/07/03 08:22:37;;;;;;;18.20;17.30;;;28.00;87.70;;;;;;4955283;29;20990;-76
2021/07/03 08:25:04;;;;;;;18.77;17.77;;;28.40;85.60;;;;;;4955241;29;20448;-79
2021/07/03 08:27:31;;;;;;;18.60;17.80;;;29.10;84.40;;;;;;4955403;29;20455;-79
2021/07/03 08:29:59;;;;;;;19.23;18.23;;;29.20;83.00;;;;;;4955023;29;20551;-79
2021/07/03 08:32:25;;;;;;;17.80;17.00;;;29.20;81.30;;;;;;4954763;29;20460;-79
2021/07/03 08:34:52;;;;;;;18.13;17.13;;;29.10;78.70;;;;;;4954730;29;20850;-79
2021/07/03 08:37:19;;;;;;;19.77;18.67;;;29.10;82.20;;;;;;4954939;29;20457;-79
2021/07/03 08:39:45;;;;;;;19.03;18.03;;;29.60;79.00;;;;;;4955091;29;20464;-79
2021/07/03 08:42:12;;;;;;;17.80;16.90;;;30.00;77.00;;;;;;4955008;29;20456;-79
2021/07/03 08:44:45;;;;;;;18.53;17.43;;;30.50;76.10;;;;;;4954600;28;20455;-79
2021/07/03 08:47:13;;;;;;;18.90;18.00;;;30.90;75.20;;;;;;4954547;29;20571;-79
2021/07/03 08:49:40;;;;;;;18.27;17.37;;;31.40;72.10;;;;;;4954697;29;20475;-79
2021/07/03 08:52:07;;;;;;;19.20;18.17;;;31.80;70.50;;;;;;4954541;29;20515;-79
2021/07/03 08:54:34;;;;;;;18.43;17.53;;;32.10;67.10;;;;;;4954340;29;21133;-79
2021/07/03 08:57:01;;;;;;;17.83;17.03;;;31.80;65.80;;;;;;4954687;29;20453;-79
2021/07/03 08:59:29;;;;;;;17.67;16.87;;;31.50;65.30;;;;;;4954733;29;20531;-78
2021/07/03 09:01:58;;;;;;;18.00;17.20;;;31.20;65.20;;;;;;4954288;29;20452;-78
2021/07/03 09:04:44;;;;;;;18.23;17.13;;;31.60;64.80;;;;;;4954097;29;20464;-78
2021/07/03 09:07:13;;;;;;;18.80;18.00;;;32.40;63.40;;;;;;4954276;29;21013;-79
2021/07/03 09:09:40;;;;;;;18.30;17.40;;;32.90;59.00;;;;;;4954357;29;20934;-76
2021/07/03 09:12:07;;;;;;;17.60;16.80;;;33.10;59.70;;;;;;4954036;29;20452;-76
2021/07/03 09:14:34;;;;;;;18.23;17.33;;;33.50;58.40;;;;;;4954186;29;20452;-79
2021/07/03 09:17:01;;;;;;;18.87;17.87;;;33.50;57.90;;;;;;4954206;28;20461;-77
2021/07/03 09:19:28;;;;;;;17.80;17.00;;;33.30;57.20;;;;;;4954214;29;20460;-77
2021/07/03 09:21:57;;;;;;;17.60;16.70;;;32.90;57.00;;;;;;4953858;29;20539;-76
2021/07/03 09:24:29;;;;;;;17.70;16.90;;;33.50;56.70;;;;;;4953962;29;20955;-76
2021/07/03 09:27:00;;;;;;;17.70;16.67;;;34.00;54.90;;;;;;4954098;29;20943;-76
2021/07/03 09:29:27;;;;;;;18.83;17.87;;;33.40;55.30;;;;;;4953981;29;20459;-76
2021/07/03 09:31:54;;;;;;;18.70;17.80;;;33.00;54.30;;;;;;4953629;29;20459;-77
2021/07/03 09:34:21;;;;;;;16.63;15.93;;;32.80;54.40;;;;;;4953718;29;20735;-77
2021/07/03 09:36:48;;;;;;;17.80;17.00;;;32.30;53.20;;;;;;4953741;29;20951;-77
2021/07/03 09:39:23;;;;;;;17.30;16.60;;;31.80;55.20;;;;;;4953939;29;20468;-76
2021/07/03 09:41:50;;;;;;;18.00;17.00;;;32.30;55.80;;;;;;4953602;29;20868;-76
2021/07/03 09:44:17;;;;;;;17.30;16.50;;;32.80;53.00;;;;;;4953649;29;20504;-79
2021/07/03 09:46:48;;;;;;;18.87;17.77;;;33.20;52.40;;;;;;4953660;28;20495;-80
2021/07/03 09:49:17;;;;;;;18.40;17.60;;;34.50;50.20;;;;;;4953843;29;20449;-79
2021/07/03 09:51:46;;;;;;;18.50;17.70;;;35.20;49.20;;;;;;4953674;29;20448;-80
2021/07/03 09:54:14;;;;;;;18.20;17.40;;;35.40;48.20;;;;;;4953743;29;20448;-80
2021/07/03 09:56:43;;;;;;;17.60;16.70;;;35.90;47.70;;;;;;4953284;29;20503;-77
2021/07/03 09:59:10;;;;;;;16.90;16.10;;;35.00;47.50;;;;;;4953215;29;20453;-77
2021/07/03 10:01:39;;;;;;;17.93;17.13;;;34.80;47.20;;;;;;4953336;29;21154;-76
2021/07/03 10:04:07;;;;;;;18.80;18.00;;;35.30;46.90;;;;;;4953183;29;20456;-76
2021/07/03 10:06:37;;;;;;;19.13;18.17;;;35.70;46.60;;;;;;4952916;29;20497;-77
2021/07/03 10:09:07;;;;;;;17.87;17.07;;;35.70;42.00;;;;;;4953079;29;20481;-77
2021/07/03 10:11:44;;;;;;;17.73;16.93;;;35.00;43.10;;;;;;4952772;29;20451;-77
2021/07/03 10:14:12;;;;;;;17.10;16.40;;;35.00;43.80;;;;;;4952970;29;20798;-77
2021/07/03 10:16:39;;;;;;;18.00;17.20;;;34.60;44.00;;;;;;4952611;29;20464;-76
2021/07/03 10:19:13;;;;;;;19.27;18.37;;;33.80;44.30;;;;;;4952918;29;20656;-77
2021/07/03 10:21:41;;;;;;;18.40;17.60;;;33.10;47.00;;;;;;4953004;29;20567;-76
2021/07/03 10:24:17;;;;;;;17.10;16.30;;;32.80;47.00;;;;;;4952799;29;20880;-77
2021/07/03 10:26:45;;;;;;;18.63;17.63;;;32.80;47.00;;;;;;4952401;28;20849;-76
2021/07/03 10:29:17;;;;;;;17.90;16.90;;;33.00;47.00;;;;;;4952677;29;20460;-76
2021/07/03 10:31:45;;;;;;;17.63;16.83;;;33.50;47.30;;;;;;4952856;29;20958;-77
2021/07/03 10:34:12;;;;;;;18.17;17.40;;;34.30;45.70;;;;;;4952757;29;20516;-77
2021/07/03 10:36:39;;;;;;;17.80;17.00;;;34.90;46.00;;;;;;4952797;29;20532;-77
2021/07/03 10:39:05;;;;;;;18.03;17.13;;;35.70;44.50;;;;;;4952536;29;20595;-76
2021/07/03 10:41:34;;;;;;;18.50;17.70;;;35.20;44.40;;;;;;4952605;29;20456;-77
2021/07/03 10:44:08;;;;;;;17.47;16.67;;;35.50;43.70;;;;;;4952713;29;20452;-76
2021/07/03 10:46:36;;;;;;;18.20;17.20;;;34.70;44.10;;;;;;4952259;28;20496;-77
2021/07/03 10:49:05;;;;;;;17.40;16.60;;;34.40;45.90;;;;;;4952226;29;20492;-76
2021/07/03 10:51:35;;;;;;;17.60;16.80;;;34.10;45.00;;;;;;4952346;29;20476;-76
2021/07/03 10:54:13;;;;;;;18.43;17.53;;;33.50;45.90;;;;;;4952311;29;20455;-76
2021/07/03 10:56:49;;;;;;;18.40;17.60;;;33.10;47.00;;;;;;4952589;29;20445;-75
2021/07/03 10:59:24;;;;;;;16.83;16.10;;;32.70;45.80;;;;;;4952567;29;20487;-75
2021/07/03 11:01:52;;;;;;;18.27;17.27;;;32.80;47.00;;;;;;4952186;29;20879;-76
2021/07/03 11:04:21;;;;;;;17.50;16.70;;;33.40;46.10;;;;;;4952217;29;20460;-76
2021/07/03 11:06:50;;;;;;;18.20;17.40;;;34.40;45.10;;;;;;4952160;29;20499;-76
2021/07/03 11:09:31;;;;;;;18.47;17.40;;;34.60;46.40;;;;;;4952322;29;20644;-76
2021/07/03 11:12:00;;;;;;;18.43;17.50;;;35.20;44.20;;;;;;4952449;29;20804;-77
2021/07/03 11:14:28;;;;;;;18.27;17.57;;;35.80;42.20;;;;;;4952133;29;20515;-76
2021/07/03 11:16:58;;;;;;;17.77;16.97;;;36.50;41.10;;;;;;4951680;29;20449;-77
2021/07/03 11:19:27;;;;;;;18.17;17.47;;;37.50;40.00;;;;;;4952097;29;20539;-77
2021/07/03 11:22:05;;;;;;;18.60;17.60;;;37.10;41.30;;;;;;4951774;29;20463;-77
2021/07/03 11:24:43;;;;;;;18.00;17.00;;;37.10;41.40;;;;;;4951854;29;20547;-76
2021/07/03 11:27:11;;;;;;;18.63;17.83;;;37.10;40.80;;;;;;4951961;29;20496;-77
2021/07/03 11:29:39;;;;;;;18.27;17.53;;;37.20;40.30;;;;;;4951660;29;20488;-76
2021/07/03 11:32:08;;;;;;;18.43;17.70;;;37.00;39.60;;;;;;4951667;29;20474;-77
2021/07/03 11:34:35;;;;;;;18.10;17.40;;;37.50;38.70;;;;;;4951649;29;20445;-77
2021/07/03 11:37:03;;;;;;;17.50;16.63;;;37.70;38.00;;;;;;4951770;29;20457;-76
2021/07/03 11:39:30;;;;;;;17.97;17.20;;;36.70;39.00;;;;;;4951017;28;20464;-77
2021/07/03 11:42:02;;;;;;;17.70;17.00;;;36.00;40.00;;;;;;4951544;29;20460;-76
2021/07/03 11:44:29;;;;;;;18.33;17.10;;;34.90;40.90;;;;;;4951684;28;20495;-76
2021/07/03 11:46:57;;;;;;;17.83;17.07;;;34.30;42.30;;;;;;4951250;29;20496;-76
2021/07/03 11:49:24;;;;;;;17.63;16.90;;;34.30;42.20;;;;;;4951513;29;20456;-76
2021/07/03 11:52:01;;;;;;;17.40;16.60;;;33.40;43.00;;;;;;4951337;29;20558;-76
2021/07/03 11:54:28;;;;;;;17.43;16.70;;;33.20;43.40;;;;;;4951527;29;20467;-76
2021/07/03 11:57:00;;;;;;;16.60;15.90;;;33.50;42.80;;;;;;4951330;29;20844;-76
2021/07/03 11:59:28;;;;;;;17.03;16.33;;;33.50;43.00;;;;;;4951453;29;20452;-75
2021/07/03 12:01:57;;;;;;;17.20;16.40;;;34.20;41.40;;;;;;4951352;29;20480;-76
2021/07/03 12:04:24;;;;;;;16.93;16.23;;;34.20;41.40;;;;;;4951246;29;20458;-76
2021/07/03 12:07:01;;;;;;;18.57;17.87;;;34.60;41.10;;;;;;4951230;29;20488;-76
2021/07/03 12:09:36;;;;;;;17.23;16.43;;;34.50;41.80;;;;;;4951810;29;20825;-76
2021/07/03 12:12:04;;;;;;;18.40;17.60;;;34.10;40.80;;;;;;4951467;29;20456;-75
2021/07/03 12:14:30;;;;;;;16.40;15.70;;;34.10;42.10;;;;;;4951484;29;20831;-75
2021/07/03 12:16:59;;;;;;;16.10;15.40;;;34.00;40.90;;;;;;4951317;29;20444;-76
2021/07/03 12:19:26;;;;;;;15.77;15.03;;;34.20;41.20;;;;;;4951176;29;20467;-75
2021/07/03 12:21:52;;;;;;;15.30;14.70;;;34.50;40.80;;;;;;4951053;29;20456;-75
2021/07/03 12:24:27;;;;;;;16.70;15.93;;;33.90;42.10;;;;;;4951157;29;20452;-75
2021/07/03 12:26:54;;;;;;;16.60;15.90;;;33.30;43.40;;;;;;4951001;29;20566;-75
2021/07/03 12:29:31;;;;;;;16.60;15.50;;;33.50;43.10;;;;;;4950903;29;20452;-75
2021/07/03 12:32:10;;;;;;;15.73;15.03;;;33.60;42.70;;;;;;4951169;29;20459;-78
2021/07/03 12:34:38;;;;;;;15.50;14.90;;;32.80;42.50;;;;;;4950917;29;21041;-78
2021/07/03 12:37:06;;;;;;;15.77;15.17;;;33.40;43.00;;;;;;4951049;29;20516;-78
2021/07/03 12:39:34;;;;;;;15.67;15.07;;;33.80;41.70;;;;;;4951249;29;20459;-76
2021/07/03 12:42:03;;;;;;;16.20;15.60;;;33.50;41.50;;;;;;4950948;29;20459;-76
2021/07/03 12:44:33;;;;;;;16.23;15.53;;;33.40;42.90;;;;;;4951200;28;20456;-75
2021/07/03 12:47:01;;;;;;;16.60;15.83;;;33.20;41.60;;;;;;4951175;29;20955;-76
2021/07/03 12:49:34;;;;;;;15.97;15.37;;;34.00;41.90;;;;;;4950985;28;20448;-76
2021/07/03 12:52:01;;;;;;;16.40;15.70;;;34.50;40.80;;;;;;4954298;29;20454;-76
2021/07/03 12:54:28;;;;;;;15.97;15.27;;;35.00;39.90;;;;;;4954735;29;20452;-76
2021/07/03 12:56:55;;;;;;;16.03;15.43;;;34.50;40.20;;;;;;4954248;29;20452;-75
2021/07/03 12:59:33;;;;;;;16.40;15.73;;;33.70;41.40;;;;;;4954271;29;20487;-75
2021/07/03 13:02:05;;;;;;;16.13;15.33;;;34.30;42.30;;;;;;4954605;29;20459;-75
2021/07/03 13:04:33;;;;;;;16.13;15.43;;;34.20;40.60;;;;;;4954503;29;20484;-75
2021/07/03 13:07:00;;;;;;;17.77;16.87;;;33.70;41.20;;;;;;4954587;29;20495;-76
2021/07/03 13:09:27;;;;;;;16.70;16.00;;;32.70;42.20;;;;;;4954247;29;20456;-75
2021/07/03 13:11:54;;;;;;;16.50;15.80;;;33.30;41.60;;;;;;4954129;29;20453;-75
2021/07/03 13:14:21;;;;;;;16.53;15.83;;;34.10;41.60;;;;;;4953967;29;20850;-76
2021/07/03 13:16:47;;;;;;;16.63;15.90;;;34.50;41.60;;;;;;4953926;29;20939;-76
2021/07/03 13:19:14;;;;;;;17.57;16.77;;;34.60;41.00;;;;;;4954189;29;20468;-76
2021/07/03 13:21:42;;;;;;;16.60;15.90;;;34.90;41.10;;;;;;4953961;29;20468;-77
2021/07/03 13:24:09;;;;;;;16.13;15.50;;;35.00;41.30;;;;;;4953815;29;20456;-77
2021/07/03 13:26:36;;;;;;;16.20;15.60;;;35.70;39.50;;;;;;4953788;29;20496;-77
2021/07/03 13:29:04;;;;;;;15.97;15.27;;;35.30;39.50;;;;;;4953833;29;21014;-75
2021/07/03 13:31:30;;;;;;;15.90;15.30;;;35.80;38.80;;;;;;4953940;29;20460;-76
2021/07/03 13:33:57;;;;;;;17.27;16.30;;;36.40;38.40;;;;;;4953654;29;20453;-76
2021/07/03 13:36:24;;;;;;;17.00;16.30;;;36.50;38.50;;;;;;4953499;29;20452;-76
2021/07/03 13:38:52;;;;;;;17.47;16.77;;;36.00;39.10;;;;;;4953590;29;20962;-75
2021/07/03 13:41:19;;;;;;;16.97;16.27;;;35.40;38.80;;;;;;4953562;29;20487;-75
2021/07/03 13:43:45;;;;;;;16.63;15.73;;;34.30;41.40;;;;;;4953700;29;20452;-75
2021/07/03 13:46:13;;;;;;;16.07;15.47;;;34.70;40.40;;;;;;4953393;28;20492;-75
2021/07/03 13:48:40;;;;;;;16.33;15.73;;;34.50;40.40;;;;;;4952944;29;20488;-75
2021/07/03 13:51:07;;;;;;;16.37;15.67;;;34.00;41.40;;;;;;4953386;29;20912;-75
2021/07/03 13:53:34;;;;;;;15.37;14.67;;;33.80;41.90;;;;;;4953209;29;20545;-75
2021/07/03 13:56:02;;;;;;;15.57;14.97;;;32.40;42.60;;;;;;4953584;29;20456;-75
2021/07/03 13:58:29;;;;;;;15.80;15.20;;;32.50;43.00;;;;;;4953079;29;20868;-76
2021/07/03 14:00:56;;;;;;;15.40;14.80;;;33.30;42.40;;;;;;4953045;29;20491;-75
2021/07/03 14:03:23;;;;;;;16.40;15.77;;;33.80;42.70;;;;;;4952177;28;20482;-75
2021/07/03 14:05:51;;;;;;;17.30;16.60;;;34.20;41.50;;;;;;4952847;29;20460;-75
2021/07/03 14:08:18;;;;;;;15.30;14.70;;;34.40;40.90;;;;;;4952898;29;20456;-75
2021/07/03 14:10:45;;;;;;;17.20;16.30;;;33.80;41.90;;;;;;4953039;29;20453;-75
2021/07/03 14:13:13;;;;;;;16.30;15.60;;;32.50;43.20;;;;;;4953191;29;20456;-75
2021/07/03 14:15:40;;;;;;;15.83;15.03;;;32.00;44.30;;;;;;4952605;29;20456;-75
2021/07/03 14:18:07;;;;;;;15.23;14.63;;;31.70;44.40;;;;;;4952541;29;20626;-76
2021/07/03 14:20:34;;;;;;;15.63;14.93;;;31.70;45.30;;;;;;4952631;29;20955;-75
2021/07/03 14:23:01;;;;;;;15.77;14.97;;;32.00;44.50;;;;;;4952675;29;20456;-74
2021/07/03 14:25:27;;;;;;;14.73;14.03;;;32.10;44.00;;;;;;4952700;29;20464;-75
2021/07/03 14:27:54;;;;;;;15.50;14.57;;;32.10;43.70;;;;;;4952479;29;20492;-75
2021/07/03 14:30:23;;;;;;;15.97;15.30;;;32.00;44.70;;;;;;4952588;29;20484;-75
2021/07/03 14:32:50;;;;;;;15.87;15.20;;;31.70;45.20;;;;;;4952711;29;20453;-75
2021/07/03 14:35:17;;;;;;;16.93;16.20;;;32.00;44.50;;;;;;4952581;29;20465;-76
2021/07/03 14:37:43;;;;;;;15.93;15.13;;;31.90;44.30;;;;;;4952558;29;20449;-75
2021/07/03 14:40:11;;;;;;;15.70;15.00;;;32.10;45.30;;;;;;4952159;29;20820;-75
2021/07/03 14:42:38;;;;;;;16.83;16.13;;;32.70;44.10;;;;;;4952213;29;20457;-75
2021/07/03 14:45:06;;;;;;;16.57;15.87;;;33.40;42.90;;;;;;4952175;28;20535;-76
2021/07/03 14:47:34;;;;;;;17.10;16.40;;;33.60;42.00;;;;;;4952079;29;20889;-75
2021/07/03 14:50:00;;;;;;;17.07;16.37;;;33.70;43.00;;;;;;4952399;29;20556;-75
2021/07/03 14:52:27;;;;;;;15.63;15.03;;;34.20;41.50;;;;;;4952183;29;20456;-75
2021/07/03 14:54:54;;;;;;;16.93;16.23;;;33.50;42.10;;;;;;4952140;29;20459;-76
2021/07/03 14:57:21;;;;;;;16.03;15.43;;;32.80;43.20;;;;;;4952051;29;20459;-75
2021/07/03 14:59:47;;;;;;;16.20;15.50;;;32.50;44.10;;;;;;4951949;29;20456;-75
2021/07/03 15:02:14;;;;;;;16.30;15.63;;;32.40;44.90;;;;;;4952277;29;20500;-75
2021/07/03 15:04:42;;;;;;;16.17;15.47;;;32.00;45.90;;;;;;4951844;29;20832;-76
2021/07/03 15:07:09;;;;;;;15.80;15.20;;;32.10;44.00;;;;;;4951568;29;20496;-75
2021/07/03 15:09:35;;;;;;;15.00;14.40;;;32.30;43.70;;;;;;4951530;29;20453;-75
2021/07/03 15:12:02;;;;;;;15.93;15.23;;;32.40;43.20;;;;;;4951703;29;20492;-75
2021/07/03 15:14:29;;;;;;;15.60;14.83;;;32.00;44.10;;;;;;4951534;28;20488;-75
2021/07/03 15:16:56;;;;;;;17.03;16.23;;;31.80;44.70;;;;;;4951717;29;20838;-75